sensor_id;sensor_type;location;lat;lon;timestamp;P1;durP1;ratioP1;P2;durP2;ratioP2
7027;SDS011;3555;53.248;10.336;2023-07-30T00:02:19;3.60;;;3.17;;
7027;SDS011;3555;53.248;10.336;2023-07-30T00:04:46;4.45;;;3.28;;
7027;SDS011;3555;53.248;10.336;2023-07-30T00:07:13;3.40;;;3.10;;
7027;SDS011;3555;53.248;10.336;2023-07-30T00:09:40;3.70;;;3.20;;
7027;SDS011;3555;53.248;10.336;2023-07-30T00:12:09;3.63;;;3.10;;
7027;SDS011;3555;53.248;10.336;2023-07-30T00:14:36;4.68;;;3.33;;
7027;SDS011;3555;53.248;10.336;2023-07-30T00:17:03;3.65;;;3.22;;
7027;SDS011;3555;53.248;10.336;2023-07-30T00:19:30;3.10;;;2.80;;
7027;SDS011;3555;53.248;10.336;2023-07-30T00:21:58;3.70;;;3.00;;
7027;SDS011;3555;53.248;10.336;2023-07-30T00:24:25;3.47;;;3.05;;
7027;SDS011;3555;53.248;10.336;2023-07-30T00:26:52;3.53;;;3.22;;
7027;SDS011;3555;53.248;10.336;2023-07-30T00:29:20;4.75;;;3.35;;
7027;SDS011;3555;53.248;10.336;2023-07-30T00:31:47;3.53;;;3.05;;
7027;SDS011;3555;53.248;10.336;2023-07-30T00:34:14;3.30;;;3.00;;
7027;SDS011;3555;53.248;10.336;2023-07-30T00:36:41;3.53;;;2.70;;
7027;SDS011;3555;53.248;10.336;2023-07-30T00:39:07;3.33;;;2.58;;
7027;SDS011;3555;53.248;10.336;2023-07-30T00:41:36;4.10;;;2.95;;
7027;SDS011;3555;53.248;10.336;2023-07-30T00:44:03;4.47;;;2.70;;
7027;SDS011;3555;53.248;10.336;2023-07-30T00:46:31;4.68;;;3.00;;
7027;SDS011;3555;53.248;10.336;2023-07-30T00:48:58;5.35;;;2.53;;
7027;SDS011;3555;53.248;10.336;2023-07-30T00:51:25;4.43;;;2.65;;
7027;SDS011;3555;53.248;10.336;2023-07-30T00:53:53;4.18;;;2.50;;
7027;SDS011;3555;53.248;10.336;2023-07-30T00:56:21;5.05;;;2.90;;
7027;SDS011;3555;53.248;10.336;2023-07-30T00:58:47;3.42;;;2.45;;
7027;SDS011;3555;53.248;10.336;2023-07-30T01:01:15;3.03;;;2.50;;
7027;SDS011;3555;53.248;10.336;2023-07-30T01:03:43;4.28;;;2.40;;
7027;SDS011;3555;53.248;10.336;2023-07-30T01:06:11;3.90;;;2.80;;
7027;SDS011;3555;53.248;10.336;2023-07-30T01:08:38;4.20;;;2.55;;
7027;SDS011;3555;53.248;10.336;2023-07-30T01:11:05;2.83;;;2.45;;
7027;SDS011;3555;53.248;10.336;2023-07-30T01:13:33;3.28;;;2.92;;
7027;SDS011;3555;53.248;10.336;2023-07-30T01:16:01;4.03;;;2.65;;
7027;SDS011;3555;53.248;10.336;2023-07-30T01:18:29;3.30;;;2.67;;
7027;SDS011;3555;53.248;10.336;2023-07-30T01:20:58;3.15;;;2.85;;
7027;SDS011;3555;53.248;10.336;2023-07-30T01:23:25;3.65;;;2.70;;
7027;SDS011;3555;53.248;10.336;2023-07-30T01:25:53;3.70;;;2.80;;
7027;SDS011;3555;53.248;10.336;2023-07-30T01:28:26;6.75;;;2.70;;
7027;SDS011;3555;53.248;10.336;2023-07-30T01:30:55;4.63;;;3.38;;
7027;SDS011;3555;53.248;10.336;2023-07-30T01:33:25;5.57;;;3.35;;
7027;SDS011;3555;53.248;10.336;2023-07-30T01:35:53;7.15;;;3.40;;
7027;SDS011;3555;53.248;10.336;2023-07-30T01:38:23;4.57;;;2.60;;
7027;SDS011;3555;53.248;10.336;2023-07-30T01:40:52;4.28;;;3.30;;
7027;SDS011;3555;53.248;10.336;2023-07-30T01:43:19;4.22;;;3.22;;
7027;SDS011;3555;53.248;10.336;2023-07-30T01:45:46;4.78;;;3.22;;
7027;SDS011;3555;53.248;10.336;2023-07-30T01:48:13;6.20;;;3.38;;
7027;SDS011;3555;53.248;10.336;2023-07-30T01:50:40;4.50;;;3.50;;
7027;SDS011;3555;53.248;10.336;2023-07-30T01:53:08;4.57;;;3.53;;
7027;SDS011;3555;53.248;10.336;2023-07-30T01:55:36;4.32;;;3.92;;
7027;SDS011;3555;53.248;10.336;2023-07-30T01:58:04;3.95;;;3.53;;
7027;SDS011;3555;53.248;10.336;2023-07-30T02:00:31;5.70;;;4.45;;
7027;SDS011;3555;53.248;10.336;2023-07-30T02:02:58;4.78;;;3.60;;
7027;SDS011;3555;53.248;10.336;2023-07-30T02:05:25;4.28;;;3.83;;
7027;SDS011;3555;53.248;10.336;2023-07-30T02:07:51;5.25;;;3.70;;
7027;SDS011;3555;53.248;10.336;2023-07-30T02:10:18;3.75;;;3.35;;
7027;SDS011;3555;53.248;10.336;2023-07-30T02:12:46;4.95;;;4.22;;
7027;SDS011;3555;53.248;10.336;2023-07-30T02:15:13;7.60;;;4.22;;
7027;SDS011;3555;53.248;10.336;2023-07-30T02:17:40;6.68;;;4.32;;
7027;SDS011;3555;53.248;10.336;2023-07-30T02:20:08;7.38;;;4.03;;
7027;SDS011;3555;53.248;10.336;2023-07-30T02:22:35;5.05;;;4.55;;
7027;SDS011;3555;53.248;10.336;2023-07-30T02:25:02;6.55;;;4.15;;
7027;SDS011;3555;53.248;10.336;2023-07-30T02:27:29;5.25;;;3.88;;
7027;SDS011;3555;53.248;10.336;2023-07-30T02:29:58;4.72;;;4.32;;
7027;SDS011;3555;53.248;10.336;2023-07-30T02:32:24;4.43;;;4.03;;
7027;SDS011;3555;53.248;10.336;2023-07-30T02:34:51;8.63;;;5.07;;
7027;SDS011;3555;53.248;10.336;2023-07-30T02:37:18;5.35;;;4.65;;
7027;SDS011;3555;53.248;10.336;2023-07-30T02:39:45;5.35;;;4.50;;
7027;SDS011;3555;53.248;10.336;2023-07-30T02:42:12;5.68;;;4.65;;
7027;SDS011;3555;53.248;10.336;2023-07-30T02:44:39;6.60;;;5.10;;
7027;SDS011;3555;53.248;10.336;2023-07-30T02:47:07;5.60;;;4.55;;
7027;SDS011;3555;53.248;10.336;2023-07-30T02:49:34;4.95;;;4.55;;
7027;SDS011;3555;53.248;10.336;2023-07-30T02:52:01;8.45;;;5.03;;
7027;SDS011;3555;53.248;10.336;2023-07-30T02:54:28;5.55;;;4.95;;
7027;SDS011;3555;53.248;10.336;2023-07-30T02:56:55;5.57;;;5.00;;
7027;SDS011;3555;53.248;10.336;2023-07-30T02:59:22;5.15;;;4.70;;
7027;SDS011;3555;53.248;10.336;2023-07-30T03:01:49;5.13;;;4.63;;
7027;SDS011;3555;53.248;10.336;2023-07-30T03:04:17;5.65;;;5.05;;
7027;SDS011;3555;53.248;10.336;2023-07-30T03:06:44;4.95;;;4.45;;
7027;SDS011;3555;53.248;10.336;2023-07-30T03:09:10;6.85;;;4.63;;
7027;SDS011;3555;53.248;10.336;2023-07-30T03:11:37;5.60;;;4.50;;
7027;SDS011;3555;53.248;10.336;2023-07-30T03:14:04;7.35;;;4.00;;
7027;SDS011;3555;53.248;10.336;2023-07-30T03:16:31;7.15;;;4.60;;
7027;SDS011;3555;53.248;10.336;2023-07-30T03:18:58;5.28;;;4.45;;
7027;SDS011;3555;53.248;10.336;2023-07-30T03:21:26;4.78;;;4.20;;
7027;SDS011;3555;53.248;10.336;2023-07-30T03:23:53;6.38;;;4.68;;
7027;SDS011;3555;53.248;10.336;2023-07-30T03:26:20;16.88;;;4.78;;
7027;SDS011;3555;53.248;10.336;2023-07-30T03:28:47;6.22;;;4.20;;
7027;SDS011;3555;53.248;10.336;2023-07-30T03:31:13;6.78;;;5.03;;
7027;SDS011;3555;53.248;10.336;2023-07-30T03:33:41;9.98;;;4.18;;
7027;SDS011;3555;53.248;10.336;2023-07-30T03:36:11;6.10;;;4.30;;
7027;SDS011;3555;53.248;10.336;2023-07-30T03:38:41;4.07;;;3.63;;
7027;SDS011;3555;53.248;10.336;2023-07-30T03:41:08;6.40;;;4.18;;
7027;SDS011;3555;53.248;10.336;2023-07-30T03:43:36;5.05;;;3.85;;
7027;SDS011;3555;53.248;10.336;2023-07-30T03:46:03;10.85;;;4.18;;
7027;SDS011;3555;53.248;10.336;2023-07-30T03:48:30;5.05;;;4.00;;
7027;SDS011;3555;53.248;10.336;2023-07-30T03:50:57;7.13;;;4.55;;
7027;SDS011;3555;53.248;10.336;2023-07-30T03:53:24;7.03;;;4.20;;
7027;SDS011;3555;53.248;10.336;2023-07-30T03:55:53;6.13;;;4.22;;
7027;SDS011;3555;53.248;10.336;2023-07-30T03:58:20;7.40;;;4.53;;
7027;SDS011;3555;53.248;10.336;2023-07-30T04:00:47;6.40;;;3.72;;
7027;SDS011;3555;53.248;10.336;2023-07-30T04:03:13;5.40;;;3.75;;
7027;SDS011;3555;53.248;10.336;2023-07-30T04:05:40;8.95;;;4.70;;
7027;SDS011;3555;53.248;10.336;2023-07-30T04:08:07;7.40;;;3.70;;
7027;SDS011;3555;53.248;10.336;2023-07-30T04:10:34;6.35;;;3.33;;
7027;SDS011;3555;53.248;10.336;2023-07-30T04:13:02;5.15;;;3.63;;
7027;SDS011;3555;53.248;10.336;2023-07-30T04:15:29;4.45;;;3.42;;
7027;SDS011;3555;53.248;10.336;2023-07-30T04:17:56;6.85;;;3.95;;
7027;SDS011;3555;53.248;10.336;2023-07-30T04:20:23;4.60;;;3.40;;
7027;SDS011;3555;53.248;10.336;2023-07-30T04:22:50;6.93;;;3.28;;
7027;SDS011;3555;53.248;10.336;2023-07-30T04:25:17;5.72;;;3.58;;
7027;SDS011;3555;53.248;10.336;2023-07-30T04:27:44;9.00;;;3.92;;
7027;SDS011;3555;53.248;10.336;2023-07-30T04:30:13;6.78;;;3.83;;
7027;SDS011;3555;53.248;10.336;2023-07-30T04:32:39;4.43;;;3.28;;
7027;SDS011;3555;53.248;10.336;2023-07-30T04:35:07;11.43;;;3.83;;
7027;SDS011;3555;53.248;10.336;2023-07-30T04:37:34;6.13;;;3.50;;
7027;SDS011;3555;53.248;10.336;2023-07-30T04:40:01;8.68;;;4.55;;
7027;SDS011;3555;53.248;10.336;2023-07-30T04:42:28;11.57;;;3.90;;
7027;SDS011;3555;53.248;10.336;2023-07-30T04:44:55;7.75;;;4.03;;
7027;SDS011;3555;53.248;10.336;2023-07-30T04:47:23;5.35;;;3.55;;
7027;SDS011;3555;53.248;10.336;2023-07-30T04:49:50;5.38;;;3.65;;
7027;SDS011;3555;53.248;10.336;2023-07-30T04:52:18;9.00;;;3.97;;
7027;SDS011;3555;53.248;10.336;2023-07-30T04:54:45;8.23;;;3.58;;
7027;SDS011;3555;53.248;10.336;2023-07-30T04:57:12;5.80;;;3.90;;
7027;SDS011;3555;53.248;10.336;2023-07-30T04:59:39;7.22;;;3.70;;
7027;SDS011;3555;53.248;10.336;2023-07-30T05:02:06;4.38;;;3.28;;
7027;SDS011;3555;53.248;10.336;2023-07-30T05:04:34;6.22;;;3.60;;
7027;SDS011;3555;53.248;10.336;2023-07-30T05:07:01;6.07;;;4.07;;
7027;SDS011;3555;53.248;10.336;2023-07-30T05:09:28;5.68;;;3.80;;
7027;SDS011;3555;53.248;10.336;2023-07-30T05:11:55;4.45;;;3.95;;
7027;SDS011;3555;53.248;10.336;2023-07-30T05:14:21;6.50;;;4.30;;
7027;SDS011;3555;53.248;10.336;2023-07-30T05:16:48;6.03;;;3.50;;
7027;SDS011;3555;53.248;10.336;2023-07-30T05:19:15;5.63;;;4.60;;
7027;SDS011;3555;53.248;10.336;2023-07-30T05:21:44;7.47;;;4.47;;
7027;SDS011;3555;53.248;10.336;2023-07-30T05:24:11;6.00;;;4.38;;
7027;SDS011;3555;53.248;10.336;2023-07-30T05:26:38;7.65;;;4.57;;
7027;SDS011;3555;53.248;10.336;2023-07-30T05:29:04;7.80;;;4.68;;
7027;SDS011;3555;53.248;10.336;2023-07-30T05:31:31;6.60;;;5.07;;
7027;SDS011;3555;53.248;10.336;2023-07-30T05:33:58;7.13;;;5.13;;
7027;SDS011;3555;53.248;10.336;2023-07-30T05:36:25;9.45;;;4.53;;
7027;SDS011;3555;53.248;10.336;2023-07-30T05:38:53;5.05;;;4.47;;
7027;SDS011;3555;53.248;10.336;2023-07-30T05:41:20;5.20;;;3.97;;
7027;SDS011;3555;53.248;10.336;2023-07-30T05:43:47;7.47;;;4.32;;
7027;SDS011;3555;53.248;10.336;2023-07-30T05:46:14;7.70;;;4.20;;
7027;SDS011;3555;53.248;10.336;2023-07-30T05:48:41;6.80;;;4.03;;
7027;SDS011;3555;53.248;10.336;2023-07-30T05:51:07;6.65;;;4.22;;
7027;SDS011;3555;53.248;10.336;2023-07-30T05:53:34;7.78;;;3.88;;
7027;SDS011;3555;53.248;10.336;2023-07-30T05:56:03;8.00;;;4.00;;
7027;SDS011;3555;53.248;10.336;2023-07-30T05:58:30;7.07;;;4.60;;
7027;SDS011;3555;53.248;10.336;2023-07-30T06:00:57;11.95;;;4.03;;
7027;SDS011;3555;53.248;10.336;2023-07-30T06:03:24;7.45;;;4.15;;
7027;SDS011;3555;53.248;10.336;2023-07-30T06:05:50;9.40;;;4.00;;
7027;SDS011;3555;53.248;10.336;2023-07-30T06:08:17;7.47;;;4.07;;
7027;SDS011;3555;53.248;10.336;2023-07-30T06:10:44;7.40;;;4.13;;
7027;SDS011;3555;53.248;10.336;2023-07-30T06:13:13;9.57;;;4.30;;
7027;SDS011;3555;53.248;10.336;2023-07-30T06:15:40;5.25;;;3.95;;
7027;SDS011;3555;53.248;10.336;2023-07-30T06:18:07;11.15;;;5.05;;
7027;SDS011;3555;53.248;10.336;2023-07-30T06:20:34;11.02;;;4.25;;
7027;SDS011;3555;53.248;10.336;2023-07-30T06:23:01;6.03;;;3.78;;
7027;SDS011;3555;53.248;10.336;2023-07-30T06:25:28;10.55;;;4.53;;
7027;SDS011;3555;53.248;10.336;2023-07-30T06:27:56;5.90;;;4.15;;
7027;SDS011;3555;53.248;10.336;2023-07-30T06:30:25;10.85;;;3.97;;
7027;SDS011;3555;53.248;10.336;2023-07-30T06:32:52;8.93;;;4.25;;
7027;SDS011;3555;53.248;10.336;2023-07-30T06:35:18;9.88;;;3.78;;
7027;SDS011;3555;53.248;10.336;2023-07-30T06:37:45;6.85;;;4.00;;
7027;SDS011;3555;53.248;10.336;2023-07-30T06:40:12;6.28;;;4.10;;
7027;SDS011;3555;53.248;10.336;2023-07-30T06:42:39;7.22;;;3.90;;
7027;SDS011;3555;53.248;10.336;2023-07-30T06:45:07;9.02;;;4.00;;
7027;SDS011;3555;53.248;10.336;2023-07-30T06:47:35;7.60;;;3.97;;
7027;SDS011;3555;53.248;10.336;2023-07-30T06:50:03;7.60;;;3.92;;
7027;SDS011;3555;53.248;10.336;2023-07-30T06:52:33;8.95;;;3.97;;
7027;SDS011;3555;53.248;10.336;2023-07-30T06:55:00;9.73;;;4.47;;
7027;SDS011;3555;53.248;10.336;2023-07-30T06:57:27;8.27;;;3.50;;
7027;SDS011;3555;53.248;10.336;2023-07-30T06:59:54;9.52;;;3.60;;
7027;SDS011;3555;53.248;10.336;2023-07-30T07:02:21;9.75;;;3.55;;
7027;SDS011;3555;53.248;10.336;2023-07-30T07:04:49;7.72;;;3.38;;
7027;SDS011;3555;53.248;10.336;2023-07-30T07:07:16;9.43;;;3.97;;
7027;SDS011;3555;53.248;10.336;2023-07-30T07:09:43;8.38;;;3.10;;
7027;SDS011;3555;53.248;10.336;2023-07-30T07:12:10;9.85;;;3.97;;
7027;SDS011;3555;53.248;10.336;2023-07-30T07:14:37;6.07;;;2.92;;
7027;SDS011;3555;53.248;10.336;2023-07-30T07:17:04;5.55;;;2.58;;
7027;SDS011;3555;53.248;10.336;2023-07-30T07:19:31;10.65;;;3.15;;
7027;SDS011;3555;53.248;10.336;2023-07-30T07:22:02;10.07;;;3.30;;
7027;SDS011;3555;53.248;10.336;2023-07-30T07:24:30;8.68;;;2.92;;
7027;SDS011;3555;53.248;10.336;2023-07-30T07:26:57;7.95;;;2.97;;
7027;SDS011;3555;53.248;10.336;2023-07-30T07:29:24;10.35;;;2.65;;
7027;SDS011;3555;53.248;10.336;2023-07-30T07:31:51;7.72;;;2.67;;
7027;SDS011;3555;53.248;10.336;2023-07-30T07:34:18;6.75;;;2.65;;
7027;SDS011;3555;53.248;10.336;2023-07-30T07:36:45;5.30;;;2.60;;
7027;SDS011;3555;53.248;10.336;2023-07-30T07:39:13;5.45;;;2.75;;
7027;SDS011;3555;53.248;10.336;2023-07-30T07:41:40;7.65;;;2.67;;
7027;SDS011;3555;53.248;10.336;2023-07-30T07:44:07;5.60;;;2.53;;
7027;SDS011;3555;53.248;10.336;2023-07-30T07:46:34;6.18;;;2.50;;
7027;SDS011;3555;53.248;10.336;2023-07-30T07:49:01;9.27;;;2.88;;
7027;SDS011;3555;53.248;10.336;2023-07-30T07:51:28;7.93;;;2.65;;
7027;SDS011;3555;53.248;10.336;2023-07-30T07:53:54;8.82;;;2.55;;
7027;SDS011;3555;53.248;10.336;2023-07-30T07:56:23;6.93;;;2.40;;
7027;SDS011;3555;53.248;10.336;2023-07-30T07:58:50;7.57;;;2.30;;
7027;SDS011;3555;53.248;10.336;2023-07-30T08:01:16;10.18;;;2.72;;
7027;SDS011;3555;53.248;10.336;2023-07-30T08:03:43;11.43;;;2.55;;
7027;SDS011;3555;53.248;10.336;2023-07-30T08:06:10;6.10;;;2.22;;
7027;SDS011;3555;53.248;10.336;2023-07-30T08:08:37;6.45;;;2.20;;
7027;SDS011;3555;53.248;10.336;2023-07-30T08:11:05;12.82;;;2.58;;
7027;SDS011;3555;53.248;10.336;2023-07-30T08:13:33;6.38;;;2.28;;
7027;SDS011;3555;53.248;10.336;2023-07-30T08:16:01;7.75;;;2.50;;
7027;SDS011;3555;53.248;10.336;2023-07-30T08:18:28;5.85;;;2.72;;
7027;SDS011;3555;53.248;10.336;2023-07-30T08:20:55;10.07;;;2.85;;
7027;SDS011;3555;53.248;10.336;2023-07-30T08:23:22;7.03;;;2.38;;
7027;SDS011;3555;53.248;10.336;2023-07-30T08:25:49;6.30;;;2.15;;
7027;SDS011;3555;53.248;10.336;2023-07-30T08:28:16;12.88;;;2.95;;
7027;SDS011;3555;53.248;10.336;2023-07-30T08:30:44;7.18;;;2.47;;
7027;SDS011;3555;53.248;10.336;2023-07-30T08:33:11;7.32;;;2.38;;
7027;SDS011;3555;53.248;10.336;2023-07-30T08:35:38;9.63;;;2.70;;
7027;SDS011;3555;53.248;10.336;2023-07-30T08:38:05;6.72;;;2.45;;
7027;SDS011;3555;53.248;10.336;2023-07-30T08:40:31;11.57;;;2.35;;
7027;SDS011;3555;53.248;10.336;2023-07-30T08:42:59;7.20;;;2.13;;
7027;SDS011;3555;53.248;10.336;2023-07-30T08:45:26;7.93;;;2.30;;
7027;SDS011;3555;53.248;10.336;2023-07-30T08:47:54;7.55;;;2.35;;
7027;SDS011;3555;53.248;10.336;2023-07-30T08:50:21;5.85;;;2.13;;
7027;SDS011;3555;53.248;10.336;2023-07-30T08:52:48;9.48;;;2.60;;
7027;SDS011;3555;53.248;10.336;2023-07-30T08:55:16;8.60;;;2.33;;
7027;SDS011;3555;53.248;10.336;2023-07-30T08:57:44;6.47;;;2.15;;
7027;SDS011;3555;53.248;10.336;2023-07-30T09:00:12;8.60;;;1.98;;
7027;SDS011;3555;53.248;10.336;2023-07-30T09:02:44;7.57;;;2.30;;
7027;SDS011;3555;53.248;10.336;2023-07-30T09:05:15;6.30;;;2.03;;
7027;SDS011;3555;53.248;10.336;2023-07-30T09:07:42;7.57;;;2.20;;
7027;SDS011;3555;53.248;10.336;2023-07-30T09:10:09;9.23;;;2.80;;
7027;SDS011;3555;53.248;10.336;2023-07-30T09:12:36;7.55;;;2.65;;
7027;SDS011;3555;53.248;10.336;2023-07-30T09:15:03;9.60;;;2.58;;
7027;SDS011;3555;53.248;10.336;2023-07-30T09:17:32;6.07;;;2.42;;
7027;SDS011;3555;53.248;10.336;2023-07-30T09:20:00;4.82;;;1.80;;
7027;SDS011;3555;53.248;10.336;2023-07-30T09:22:30;5.93;;;2.20;;
7027;SDS011;3555;53.248;10.336;2023-07-30T09:25:01;5.70;;;2.15;;
7027;SDS011;3555;53.248;10.336;2023-07-30T09:27:29;10.23;;;2.10;;
7027;SDS011;3555;53.248;10.336;2023-07-30T09:29:57;6.78;;;2.13;;
7027;SDS011;3555;53.248;10.336;2023-07-30T09:32:25;7.32;;;2.38;;
7027;SDS011;3555;53.248;10.336;2023-07-30T09:34:53;10.07;;;2.42;;
7027;SDS011;3555;53.248;10.336;2023-07-30T09:37:20;6.50;;;2.22;;
7027;SDS011;3555;53.248;10.336;2023-07-30T09:39:48;7.07;;;2.03;;
7027;SDS011;3555;53.248;10.336;2023-07-30T09:42:15;9.18;;;2.25;;
7027;SDS011;3555;53.248;10.336;2023-07-30T09:44:42;7.63;;;2.20;;
7027;SDS011;3555;53.248;10.336;2023-07-30T09:47:12;7.15;;;2.05;;
7027;SDS011;3555;53.248;10.336;2023-07-30T09:49:39;9.93;;;2.10;;
7027;SDS011;3555;53.248;10.336;2023-07-30T09:52:07;7.22;;;2.10;;
7027;SDS011;3555;53.248;10.336;2023-07-30T09:54:34;7.20;;;2.00;;
7027;SDS011;3555;53.248;10.336;2023-07-30T09:57:06;6.28;;;2.08;;
7027;SDS011;3555;53.248;10.336;2023-07-30T09:59:33;6.75;;;2.13;;
7027;SDS011;3555;53.248;10.336;2023-07-30T10:01:59;6.97;;;2.60;;
7027;SDS011;3555;53.248;10.336;2023-07-30T10:04:27;7.03;;;1.92;;
7027;SDS011;3555;53.248;10.336;2023-07-30T10:06:57;8.77;;;2.17;;
7027;SDS011;3555;53.248;10.336;2023-07-30T10:09:28;6.00;;;2.42;;
7027;SDS011;3555;53.248;10.336;2023-07-30T10:11:58;7.45;;;2.30;;
7027;SDS011;3555;53.248;10.336;2023-07-30T10:14:27;7.72;;;2.70;;
7027;SDS011;3555;53.248;10.336;2023-07-30T10:16:55;5.03;;;2.10;;
7027;SDS011;3555;53.248;10.336;2023-07-30T10:19:25;6.75;;;2.58;;
7027;SDS011;3555;53.248;10.336;2023-07-30T10:21:53;6.97;;;2.20;;
7027;SDS011;3555;53.248;10.336;2023-07-30T10:24:23;8.98;;;2.63;;
7027;SDS011;3555;53.248;10.336;2023-07-30T10:26:51;8.18;;;2.42;;
7027;SDS011;3555;53.248;10.336;2023-07-30T10:29:22;5.95;;;2.10;;
7027;SDS011;3555;53.248;10.336;2023-07-30T10:31:53;4.95;;;2.38;;
7027;SDS011;3555;53.248;10.336;2023-07-30T10:34:21;7.85;;;2.10;;
7027;SDS011;3555;53.248;10.336;2023-07-30T10:36:52;5.78;;;2.10;;
7027;SDS011;3555;53.248;10.336;2023-07-30T10:39:25;8.82;;;2.28;;
7027;SDS011;3555;53.248;10.336;2023-07-30T10:41:53;5.97;;;2.15;;
7027;SDS011;3555;53.248;10.336;2023-07-30T10:44:22;3.75;;;2.17;;
7027;SDS011;3555;53.248;10.336;2023-07-30T10:46:50;6.50;;;1.98;;
7027;SDS011;3555;53.248;10.336;2023-07-30T10:49:19;10.68;;;2.97;;
7027;SDS011;3555;53.248;10.336;2023-07-30T10:51:46;7.53;;;2.60;;
7027;SDS011;3555;53.248;10.336;2023-07-30T10:54:13;6.80;;;2.35;;
7027;SDS011;3555;53.248;10.336;2023-07-30T10:56:41;6.03;;;2.00;;
7027;SDS011;3555;53.248;10.336;2023-07-30T10:59:09;7.32;;;2.17;;
7027;SDS011;3555;53.248;10.336;2023-07-30T11:01:37;9.60;;;2.33;;
7027;SDS011;3555;53.248;10.336;2023-07-30T11:04:08;5.55;;;2.10;;
7027;SDS011;3555;53.248;10.336;2023-07-30T11:06:35;5.82;;;2.00;;
7027;SDS011;3555;53.248;10.336;2023-07-30T11:09:03;9.30;;;2.78;;
7027;SDS011;3555;53.248;10.336;2023-07-30T11:11:30;9.48;;;3.10;;
7027;SDS011;3555;53.248;10.336;2023-07-30T11:13:57;10.20;;;2.70;;
7027;SDS011;3555;53.248;10.336;2023-07-30T11:16:24;9.15;;;2.80;;
7027;SDS011;3555;53.248;10.336;2023-07-30T11:18:51;10.85;;;2.58;;
7027;SDS011;3555;53.248;10.336;2023-07-30T11:21:20;9.85;;;2.83;;
7027;SDS011;3555;53.248;10.336;2023-07-30T11:23:47;6.53;;;2.45;;
7027;SDS011;3555;53.248;10.336;2023-07-30T11:26:17;8.50;;;2.47;;
7027;SDS011;3555;53.248;10.336;2023-07-30T11:28:45;6.55;;;1.92;;
7027;SDS011;3555;53.248;10.336;2023-07-30T11:31:13;5.38;;;2.53;;
7027;SDS011;3555;53.248;10.336;2023-07-30T11:33:42;8.75;;;2.50;;
7027;SDS011;3555;53.248;10.336;2023-07-30T11:36:10;9.38;;;2.45;;
7027;SDS011;3555;53.248;10.336;2023-07-30T11:38:41;6.43;;;2.28;;
7027;SDS011;3555;53.248;10.336;2023-07-30T11:41:09;5.88;;;2.50;;
7027;SDS011;3555;53.248;10.336;2023-07-30T11:43:37;9.05;;;2.33;;
7027;SDS011;3555;53.248;10.336;2023-07-30T11:46:09;7.25;;;2.45;;
7027;SDS011;3555;53.248;10.336;2023-07-30T11:48:38;6.40;;;2.25;;
7027;SDS011;3555;53.248;10.336;2023-07-30T11:51:05;9.38;;;2.58;;
7027;SDS011;3555;53.248;10.336;2023-07-30T11:53:47;6.07;;;2.40;;
7027;SDS011;3555;53.248;10.336;2023-07-30T11:56:16;5.05;;;2.33;;
7027;SDS011;3555;53.248;10.336;2023-07-30T11:58:44;8.02;;;2.50;;
7027;SDS011;3555;53.248;10.336;2023-07-30T12:01:11;7.07;;;2.00;;
7027;SDS011;3555;53.248;10.336;2023-07-30T12:03:39;10.50;;;2.42;;
7027;SDS011;3555;53.248;10.336;2023-07-30T12:06:07;6.45;;;2.20;;
7027;SDS011;3555;53.248;10.336;2023-07-30T12:08:35;5.88;;;1.92;;
7027;SDS011;3555;53.248;10.336;2023-07-30T12:11:04;5.65;;;2.30;;
7027;SDS011;3555;53.248;10.336;2023-07-30T12:13:31;6.18;;;2.25;;
7027;SDS011;3555;53.248;10.336;2023-07-30T12:16:02;4.90;;;2.10;;
7027;SDS011;3555;53.248;10.336;2023-07-30T12:18:29;5.43;;;1.92;;
7027;SDS011;3555;53.248;10.336;2023-07-30T12:20:55;5.28;;;1.80;;
7027;SDS011;3555;53.248;10.336;2023-07-30T12:23:23;5.88;;;1.92;;
7027;SDS011;3555;53.248;10.336;2023-07-30T12:25:50;6.30;;;2.00;;
7027;SDS011;3555;53.248;10.336;2023-07-30T12:28:18;5.00;;;1.88;;
7027;SDS011;3555;53.248;10.336;2023-07-30T12:30:45;3.63;;;1.88;;
7027;SDS011;3555;53.248;10.336;2023-07-30T12:33:12;6.78;;;1.80;;
7027;SDS011;3555;53.248;10.336;2023-07-30T12:35:39;5.65;;;2.20;;
7027;SDS011;3555;53.248;10.336;2023-07-30T12:38:06;6.18;;;2.35;;
7027;SDS011;3555;53.248;10.336;2023-07-30T12:40:33;7.35;;;2.40;;
7027;SDS011;3555;53.248;10.336;2023-07-30T12:43:00;5.25;;;2.03;;
7027;SDS011;3555;53.248;10.336;2023-07-30T12:45:29;4.13;;;1.90;;
7027;SDS011;3555;53.248;10.336;2023-07-30T12:47:56;4.25;;;1.83;;
7027;SDS011;3555;53.248;10.336;2023-07-30T12:50:24;6.72;;;2.05;;
7027;SDS011;3555;53.248;10.336;2023-07-30T12:52:51;4.88;;;2.03;;
7027;SDS011;3555;53.248;10.336;2023-07-30T12:55:18;6.32;;;2.20;;
7027;SDS011;3555;53.248;10.336;2023-07-30T12:57:45;5.30;;;2.03;;
7027;SDS011;3555;53.248;10.336;2023-07-30T13:00:12;5.07;;;2.15;;
7027;SDS011;3555;53.248;10.336;2023-07-30T13:02:42;10.23;;;1.77;;
7027;SDS011;3555;53.248;10.336;2023-07-30T13:05:09;6.00;;;2.22;;
7027;SDS011;3555;53.248;10.336;2023-07-30T13:07:37;5.57;;;2.08;;
7027;SDS011;3555;53.248;10.336;2023-07-30T13:10:04;5.70;;;2.05;;
7027;SDS011;3555;53.248;10.336;2023-07-30T13:12:33;4.68;;;1.60;;
7027;SDS011;3555;53.248;10.336;2023-07-30T13:15:00;11.10;;;2.00;;
7027;SDS011;3555;53.248;10.336;2023-07-30T13:17:28;8.45;;;1.98;;
7027;SDS011;3555;53.248;10.336;2023-07-30T13:19:56;4.55;;;1.98;;
7027;SDS011;3555;53.248;10.336;2023-07-30T13:22:25;4.15;;;1.75;;
7027;SDS011;3555;53.248;10.336;2023-07-30T13:24:52;4.82;;;1.40;;
7027;SDS011;3555;53.248;10.336;2023-07-30T13:27:19;5.07;;;1.95;;
7027;SDS011;3555;53.248;10.336;2023-07-30T13:29:45;6.65;;;2.10;;
7027;SDS011;3555;53.248;10.336;2023-07-30T13:32:13;5.03;;;1.85;;
7027;SDS011;3555;53.248;10.336;2023-07-30T13:34:40;4.50;;;2.17;;
7027;SDS011;3555;53.248;10.336;2023-07-30T13:37:09;6.38;;;2.30;;
7027;SDS011;3555;53.248;10.336;2023-07-30T13:39:36;4.50;;;1.63;;
7027;SDS011;3555;53.248;10.336;2023-07-30T13:42:03;5.30;;;2.00;;
7027;SDS011;3555;53.248;10.336;2023-07-30T13:44:30;6.72;;;2.00;;
7027;SDS011;3555;53.248;10.336;2023-07-30T13:46:57;6.97;;;2.60;;
7027;SDS011;3555;53.248;10.336;2023-07-30T13:49:24;4.95;;;1.92;;
7027;SDS011;3555;53.248;10.336;2023-07-30T13:51:51;5.90;;;2.00;;
7027;SDS011;3555;53.248;10.336;2023-07-30T13:54:19;4.95;;;2.20;;
7027;SDS011;3555;53.248;10.336;2023-07-30T13:56:46;3.95;;;2.22;;
7027;SDS011;3555;53.248;10.336;2023-07-30T13:59:13;8.65;;;2.55;;
7027;SDS011;3555;53.248;10.336;2023-07-30T14:01:40;4.03;;;1.58;;
7027;SDS011;3555;53.248;10.336;2023-07-30T14:04:06;4.20;;;1.50;;
7027;SDS011;3555;53.248;10.336;2023-07-30T14:06:33;2.72;;;1.10;;
7027;SDS011;3555;53.248;10.336;2023-07-30T14:09:02;4.88;;;1.48;;
7027;SDS011;3555;53.248;10.336;2023-07-30T14:11:31;2.95;;;1.00;;
7027;SDS011;3555;53.248;10.336;2023-07-30T14:13:58;3.90;;;1.52;;
7027;SDS011;3555;53.248;10.336;2023-07-30T14:16:25;2.70;;;1.30;;
7027;SDS011;3555;53.248;10.336;2023-07-30T14:18:52;3.63;;;1.55;;
7027;SDS011;3555;53.248;10.336;2023-07-30T14:21:19;2.47;;;1.00;;
7027;SDS011;3555;53.248;10.336;2023-07-30T14:23:45;3.47;;;1.30;;
7027;SDS011;3555;53.248;10.336;2023-07-30T14:26:12;2.08;;;1.00;;
7027;SDS011;3555;53.248;10.336;2023-07-30T14:28:41;4.32;;;1.35;;
7027;SDS011;3555;53.248;10.336;2023-07-30T14:31:07;6.60;;;1.45;;
7027;SDS011;3555;53.248;10.336;2023-07-30T14:33:34;2.47;;;1.27;;
7027;SDS011;3555;53.248;10.336;2023-07-30T14:36:01;5.15;;;1.38;;
7027;SDS011;3555;53.248;10.336;2023-07-30T14:38:29;1.73;;;1.55;;
7027;SDS011;3555;53.248;10.336;2023-07-30T14:40:59;3.00;;;1.42;;
7027;SDS011;3555;53.248;10.336;2023-07-30T14:43:26;3.63;;;1.27;;
7027;SDS011;3555;53.248;10.336;2023-07-30T14:45:54;2.47;;;1.35;;
7027;SDS011;3555;53.248;10.336;2023-07-30T14:48:21;3.22;;;1.67;;
7027;SDS011;3555;53.248;10.336;2023-07-30T14:50:48;2.25;;;1.38;;
7027;SDS011;3555;53.248;10.336;2023-07-30T14:53:15;4.15;;;2.90;;
7027;SDS011;3555;53.248;10.336;2023-07-30T14:55:42;4.80;;;1.60;;
7027;SDS011;3555;53.248;10.336;2023-07-30T14:58:09;3.58;;;1.63;;
7027;SDS011;3555;53.248;10.336;2023-07-30T15:00:36;5.50;;;1.73;;
7027;SDS011;3555;53.248;10.336;2023-07-30T15:03:05;2.70;;;1.58;;